sensor_id;sensor_type;location;lat;lon;timestamp;temperature;humidity
55173;DHT22;41061;52.822;6.860;2023-03-14T00:01:23;10.30;99.90
55173;DHT22;41061;52.822;6.860;2023-03-14T00:03:51;10.40;99.90
55173;DHT22;41061;52.822;6.860;2023-03-14T00:06:17;10.40;99.90
55173;DHT22;41061;52.822;6.860;2023-03-14T00:08:44;10.40;99.90
55173;DHT22;41061;52.822;6.860;2023-03-14T00:11:16;10.40;99.90
55173;DHT22;41061;52.822;6.860;2023-03-14T00:13:42;10.30;99.90
55173;DHT22;41061;52.822;6.860;2023-03-14T00:16:11;10.30;99.90
55173;DHT22;41061;52.822;6.860;2023-03-14T00:18:37;10.30;99.90
55173;DHT22;41061;52.822;6.860;2023-03-14T00:21:05;10.30;99.90
55173;DHT22;41061;52.822;6.860;2023-03-14T00:23:33;10.40;99.90
55173;DHT22;41061;52.822;6.860;2023-03-14T00:26:10;10.30;99.90
55173;DHT22;41061;52.822;6.860;2023-03-14T00:28:37;10.40;99.90
55173;DHT22;41061;52.822;6.860;2023-03-14T00:31:04;10.50;99.90
55173;DHT22;41061;52.822;6.860;2023-03-14T00:33:30;10.50;99.90
55173;DHT22;41061;52.822;6.860;2023-03-14T00:35:56;10.60;99.90
55173;DHT22;41061;52.822;6.860;2023-03-14T00:38:23;10.50;99.90
55173;DHT22;41061;52.822;6.860;2023-03-14T00:40:50;10.60;99.90
55173;DHT22;41061;52.822;6.860;2023-03-14T00:43:16;10.50;99.90
55173;DHT22;41061;52.822;6.860;2023-03-14T00:45:42;10.50;99.90
55173;DHT22;41061;52.822;6.860;2023-03-14T00:48:08;10.50;99.90
55173;DHT22;41061;52.822;6.860;2023-03-14T00:50:34;10.40;99.90
55173;DHT22;41061;52.822;6.860;2023-03-14T00:52:59;10.30;99.90
55173;DHT22;41061;52.822;6.860;2023-03-14T00:55:25;10.30;99.90
55173;DHT22;41061;52.822;6.860;2023-03-14T00:57:51;10.40;99.90
55173;DHT22;41061;52.822;6.860;2023-03-14T01:00:16;10.40;99.90
55173;DHT22;41061;52.822;6.860;2023-03-14T01:02:42;10.40;99.90
55173;DHT22;41061;52.822;6.860;2023-03-14T01:05:08;10.50;99.90
55173;DHT22;41061;52.822;6.860;2023-03-14T01:07:36;10.50;99.90
55173;DHT22;41061;52.822;6.860;2023-03-14T01:10:04;10.50;99.90
55173;DHT22;41061;52.822;6.860;2023-03-14T01:12:30;10.50;99.90
55173;DHT22;41061;52.822;6.860;2023-03-14T01:14:55;10.50;99.90
55173;DHT22;41061;52.822;6.860;2023-03-14T01:17:21;10.50;99.90
55173;DHT22;41061;52.822;6.860;2023-03-14T01:19:48;10.40;99.90
55173;DHT22;41061;52.822;6.860;2023-03-14T01:22:13;10.50;99.90
55173;DHT22;41061;52.822;6.860;2023-03-14T01:24:39;10.40;99.90
55173;DHT22;41061;52.822;6.860;2023-03-14T01:27:05;10.40;99.90
55173;DHT22;41061;52.822;6.860;2023-03-14T01:29:31;10.30;99.90
55173;DHT22;41061;52.822;6.860;2023-03-14T01:31:57;10.20;99.90
55173;DHT22;41061;52.822;6.860;2023-03-14T01:34:23;10.10;99.90
55173;DHT22;41061;52.822;6.860;2023-03-14T01:36:48;10.00;99.90
55173;DHT22;41061;52.822;6.860;2023-03-14T01:39:14;9.90;99.90
55173;DHT22;41061;52.822;6.860;2023-03-14T01:41:40;9.90;99.90
55173;DHT22;41061;52.822;6.860;2023-03-14T01:44:10;9.80;99.90
55173;DHT22;41061;52.822;6.860;2023-03-14T01:46:46;9.80;99.90
55173;DHT22;41061;52.822;6.860;2023-03-14T01:49:32;9.90;99.90
55173;DHT22;41061;52.822;6.860;2023-03-14T01:52:06;9.90;99.90
55173;DHT22;41061;52.822;6.860;2023-03-14T01:54:55;9.90;99.90
55173;DHT22;41061;52.822;6.860;2023-03-14T01:57:25;9.90;99.90
55173;DHT22;41061;52.822;6.860;2023-03-14T02:00:10;9.90;99.90
55173;DHT22;41061;52.822;6.860;2023-03-14T02:02:38;10.00;99.90
55173;DHT22;41061;52.822;6.860;2023-03-14T02:05:05;10.00;99.90
55173;DHT22;41061;52.822;6.860;2023-03-14T02:09:58;10.00;99.90
55173;DHT22;41061;52.822;6.860;2023-03-14T02:12:24;10.10;99.90
55173;DHT22;41061;52.822;6.860;2023-03-14T02:14:50;10.10;99.90
55173;DHT22;41061;52.822;6.860;2023-03-14T02:17:17;10.20;99.90
55173;DHT22;41061;52.822;6.860;2023-03-14T02:19:50;10.20;99.90
55173;DHT22;41061;52.822;6.860;2023-03-14T02:22:18;10.20;99.90
55173;DHT22;41061;52.822;6.860;2023-03-14T02:27:34;10.20;99.90
55173;DHT22;41061;52.822;6.860;2023-03-14T02:30:04;10.30;99.90
55173;DHT22;41061;52.822;6.860;2023-03-14T02:32:32;10.30;99.90
55173;DHT22;41061;52.822;6.860;2023-03-14T02:35:01;10.30;99.90
55173;DHT22;41061;52.822;6.860;2023-03-14T02:37:35;10.20;99.90
55173;DHT22;41061;52.822;6.860;2023-03-14T02:40:02;10.30;99.90
55173;DHT22;41061;52.822;6.860;2023-03-14T02:42:29;10.30;99.90
55173;DHT22;41061;52.822;6.860;2023-03-14T02:45:47;10.30;99.90
55173;DHT22;41061;52.822;6.860;2023-03-14T02:47:53;10.30;99.90
55173;DHT22;41061;52.822;6.860;2023-03-14T02:50:22;10.30;99.90
55173;DHT22;41061;52.822;6.860;2023-03-14T02:52:49;10.30;99.90
55173;DHT22;41061;52.822;6.860;2023-03-14T02:55:22;10.30;99.90
55173;DHT22;41061;52.822;6.860;2023-03-14T02:57:48;10.30;99.90
55173;DHT22;41061;52.822;6.860;2023-03-14T03:00:14;10.30;99.90
55173;DHT22;41061;52.822;6.860;2023-03-14T03:02:40;10.30;99.90
55173;DHT22;41061;52.822;6.860;2023-03-14T03:05:06;10.30;99.90
55173;DHT22;41061;52.822;6.860;2023-03-14T03:07:32;10.30;99.90
55173;DHT22;41061;52.822;6.860;2023-03-14T03:09:57;10.30;99.90
55173;DHT22;41061;52.822;6.860;2023-03-14T03:12:24;10.30;99.90
55173;DHT22;41061;52.822;6.860;2023-03-14T03:14:49;10.30;99.90
55173;DHT22;41061;52.822;6.860;2023-03-14T03:17:15;10.20;99.90
55173;DHT22;41061;52.822;6.860;2023-03-14T03:19:42;10.20;99.90
55173;DHT22;41061;52.822;6.860;2023-03-14T03:22:08;10.00;99.90
55173;DHT22;41061;52.822;6.860;2023-03-14T03:24:34;9.90;99.90
55173;DHT22;41061;52.822;6.860;2023-03-14T03:27:00;9.90;99.90
55173;DHT22;41061;52.822;6.860;2023-03-14T03:29:25;9.90;99.90
55173;DHT22;41061;52.822;6.860;2023-03-14T03:31:52;9.80;99.90
55173;DHT22;41061;52.822;6.860;2023-03-14T03:34:18;9.80;99.90
55173;DHT22;41061;52.822;6.860;2023-03-14T03:36:43;9.80;99.90
55173;DHT22;41061;52.822;6.860;2023-03-14T03:39:09;9.80;99.90
55173;DHT22;41061;52.822;6.860;2023-03-14T03:41:35;9.80;99.90
55173;DHT22;41061;52.822;6.860;2023-03-14T03:44:00;9.80;99.90
55173;DHT22;41061;52.822;6.860;2023-03-14T03:46:26;9.80;99.90
55173;DHT22;41061;52.822;6.860;2023-03-14T03:48:56;9.80;99.90
55173;DHT22;41061;52.822;6.860;2023-03-14T03:51:22;9.80;99.90
55173;DHT22;41061;52.822;6.860;2023-03-14T03:53:48;9.80;99.90
55173;DHT22;41061;52.822;6.860;2023-03-14T03:56:14;9.80;99.90
55173;DHT22;41061;52.822;6.860;2023-03-14T03:58:39;9.80;99.90
55173;DHT22;41061;52.822;6.860;2023-03-14T04:01:06;9.70;99.90
55173;DHT22;41061;52.822;6.860;2023-03-14T04:03:32;9.70;99.90
55173;DHT22;41061;52.822;6.860;2023-03-14T04:06:00;9.70;99.90
55173;DHT22;41061;52.822;6.860;2023-03-14T04:08:27;9.60;99.90
55173;DHT22;41061;52.822;6.860;2023-03-14T04:11:00;9.60;99.90
55173;DHT22;41061;52.822;6.860;2023-03-14T04:13:27;9.60;99.90
55173;DHT22;41061;52.822;6.860;2023-03-14T04:15:54;9.60;99.90
55173;DHT22;41061;52.822;6.860;2023-03-14T04:18:21;9.60;99.90
55173;DHT22;41061;52.822;6.860;2023-03-14T04:20:54;9.60;99.90
55173;DHT22;41061;52.822;6.860;2023-03-14T04:23:20;9.60;99.90
55173;DHT22;41061;52.822;6.860;2023-03-14T04:25:47;9.60;99.90
55173;DHT22;41061;52.822;6.860;2023-03-14T04:28:12;9.60;99.90
55173;DHT22;41061;52.822;6.860;2023-03-14T04:30:38;9.60;99.90
55173;DHT22;41061;52.822;6.860;2023-03-14T04:33:04;9.70;99.90
55173;DHT22;41061;52.822;6.860;2023-03-14T04:35:34;9.60;99.90
55173;DHT22;41061;52.822;6.860;2023-03-14T04:37:59;9.60;99.90
55173;DHT22;41061;52.822;6.860;2023-03-14T04:40:25;9.50;99.90
55173;DHT22;41061;52.822;6.860;2023-03-14T04:42:51;9.50;99.90
55173;DHT22;41061;52.822;6.860;2023-03-14T04:45:17;9.50;99.90
55173;DHT22;41061;52.822;6.860;2023-03-14T04:47:43;9.50;99.90
55173;DHT22;41061;52.822;6.860;2023-03-14T04:50:09;9.50;99.90
55173;DHT22;41061;52.822;6.860;2023-03-14T04:52:35;9.50;99.90
55173;DHT22;41061;52.822;6.860;2023-03-14T04:55:01;9.50;99.90
55173;DHT22;41061;52.822;6.860;2023-03-14T04:57:27;9.60;99.90
55173;DHT22;41061;52.822;6.860;2023-03-14T04:59:53;9.60;99.90
55173;DHT22;41061;52.822;6.860;2023-03-14T05:02:19;9.50;99.90
55173;DHT22;41061;52.822;6.860;2023-03-14T05:04:44;9.50;99.90
55173;DHT22;41061;52.822;6.860;2023-03-14T05:07:10;9.50;99.90
55173;DHT22;41061;52.822;6.860;2023-03-14T05:09:36;9.50;99.90
55173;DHT22;41061;52.822;6.860;2023-03-14T05:12:01;9.50;99.90
55173;DHT22;41061;52.822;6.860;2023-03-14T05:14:27;9.50;99.90
55173;DHT22;41061;52.822;6.860;2023-03-14T05:16:53;9.40;99.90
55173;DHT22;41061;52.822;6.860;2023-03-14T05:19:18;9.40;99.90
55173;DHT22;41061;52.822;6.860;2023-03-14T05:21:44;9.40;99.90
55173;DHT22;41061;52.822;6.860;2023-03-14T05:24:10;9.40;99.90
55173;DHT22;41061;52.822;6.860;2023-03-14T05:26:35;9.40;99.90
55173;DHT22;41061;52.822;6.860;2023-03-14T05:29:01;9.30;99.90
55173;DHT22;41061;52.822;6.860;2023-03-14T05:31:27;9.40;99.90
55173;DHT22;41061;52.822;6.860;2023-03-14T05:33:53;9.40;99.90
55173;DHT22;41061;52.822;6.860;2023-03-14T05:36:18;9.40;99.90
55173;DHT22;41061;52.822;6.860;2023-03-14T05:38:44;9.40;99.90
55173;DHT22;41061;52.822;6.860;2023-03-14T05:41:09;9.40;99.90
55173;DHT22;41061;52.822;6.860;2023-03-14T05:43:36;9.40;99.90
55173;DHT22;41061;52.822;6.860;2023-03-14T05:46:02;9.40;99.90
55173;DHT22;41061;52.822;6.860;2023-03-14T05:48:27;9.40;99.90
55173;DHT22;41061;52.822;6.860;2023-03-14T05:50:56;9.40;99.90
55173;DHT22;41061;52.822;6.860;2023-03-14T05:53:22;9.40;99.90
55173;DHT22;41061;52.822;6.860;2023-03-14T05:55:51;9.40;99.90
55173;DHT22;41061;52.822;6.860;2023-03-14T05:58:17;9.40;99.90
55173;DHT22;41061;52.822;6.860;2023-03-14T06:00:43;9.40;99.90
55173;DHT22;41061;52.822;6.860;2023-03-14T06:03:08;9.40;99.90
55173;DHT22;41061;52.822;6.860;2023-03-14T06:05:34;9.40;99.90
55173;DHT22;41061;52.822;6.860;2023-03-14T06:08:00;9.40;99.90
55173;DHT22;41061;52.822;6.860;2023-03-14T06:10:26;9.40;99.90
55173;DHT22;41061;52.822;6.860;2023-03-14T06:12:51;9.40;99.90
55173;DHT22;41061;52.822;6.860;2023-03-14T06:15:17;9.40;99.90
55173;DHT22;41061;52.822;6.860;2023-03-14T06:17:43;9.40;99.90
55173;DHT22;41061;52.822;6.860;2023-03-14T06:20:09;9.40;99.90
55173;DHT22;41061;52.822;6.860;2023-03-14T06:22:35;9.40;99.90
55173;DHT22;41061;52.822;6.860;2023-03-14T06:25:01;9.40;99.90
55173;DHT22;41061;52.822;6.860;2023-03-14T06:27:26;9.50;99.90
55173;DHT22;41061;52.822;6.860;2023-03-14T06:29:52;9.40;99.90
55173;DHT22;41061;52.822;6.860;2023-03-14T06:32:18;9.40;99.90
55173;DHT22;41061;52.822;6.860;2023-03-14T06:34:44;9.50;99.90
55173;DHT22;41061;52.822;6.860;2023-03-14T06:37:09;9.50;99.90
55173;DHT22;41061;52.822;6.860;2023-03-14T06:39:35;9.50;99.90
55173;DHT22;41061;52.822;6.860;2023-03-14T06:42:01;9.50;99.90
55173;DHT22;41061;52.822;6.860;2023-03-14T06:44:26;9.60;99.90
55173;DHT22;41061;52.822;6.860;2023-03-14T06:46:52;9.50;99.90
55173;DHT22;41061;52.822;6.860;2023-03-14T06:49:18;9.50;99.90
55173;DHT22;41061;52.822;6.860;2023-03-14T06:51:43;9.50;99.90
55173;DHT22;41061;52.822;6.860;2023-03-14T06:54:09;9.50;99.90
55173;DHT22;41061;52.822;6.860;2023-03-14T06:56:35;9.60;99.90
55173;DHT22;41061;52.822;6.860;2023-03-14T06:59:01;9.60;99.90
55173;DHT22;41061;52.822;6.860;2023-03-14T07:01:28;9.60;99.90
55173;DHT22;41061;52.822;6.860;2023-03-14T07:03:55;9.60;99.90
55173;DHT22;41061;52.822;6.860;2023-03-14T07:06:21;9.70;99.90
55173;DHT22;41061;52.822;6.860;2023-03-14T07:08:47;9.60;99.90
55173;DHT22;41061;52.822;6.860;2023-03-14T07:11:13;9.70;99.90
55173;DHT22;41061;52.822;6.860;2023-03-14T07:13:39;9.70;99.90
55173;DHT22;41061;52.822;6.860;2023-03-14T07:16:05;9.70;99.90
55173;DHT22;41061;52.822;6.860;2023-03-14T07:18:31;9.70;99.90
55173;DHT22;41061;52.822;6.860;2023-03-14T07:20:57;9.70;99.90
55173;DHT22;41061;52.822;6.860;2023-03-14T07:23:23;9.70;99.90
55173;DHT22;41061;52.822;6.860;2023-03-14T07:25:48;9.70;99.90
55173;DHT22;41061;52.822;6.860;2023-03-14T07:28:16;9.60;99.90
55173;DHT22;41061;52.822;6.860;2023-03-14T07:30:41;9.70;99.90
55173;DHT22;41061;52.822;6.860;2023-03-14T07:33:07;9.70;99.90
55173;DHT22;41061;52.822;6.860;2023-03-14T07:35:33;9.60;99.90
55173;DHT22;41061;52.822;6.860;2023-03-14T07:37:58;9.60;99.90
55173;DHT22;41061;52.822;6.860;2023-03-14T07:40:24;9.60;99.90
55173;DHT22;41061;52.822;6.860;2023-03-14T07:42:50;9.60;99.90
55173;DHT22;41061;52.822;6.860;2023-03-14T07:45:16;9.60;99.90
55173;DHT22;41061;52.822;6.860;2023-03-14T07:47:41;9.40;99.90
55173;DHT22;41061;52.822;6.860;2023-03-14T07:50:08;9.30;99.90
55173;DHT22;41061;52.822;6.860;2023-03-14T07:52:34;9.10;99.90
55173;DHT22;41061;52.822;6.860;2023-03-14T07:54:59;8.70;99.90
55173;DHT22;41061;52.822;6.860;2023-03-14T07:57:25;8.30;99.90
55173;DHT22;41061;52.822;6.860;2023-03-14T07:59:51;8.00;99.90
55173;DHT22;41061;52.822;6.860;2023-03-14T08:02:16;7.80;99.90
55173;DHT22;41061;52.822;6.860;2023-03-14T08:04:43;7.50;99.90
55173;DHT22;41061;52.822;6.860;2023-03-14T08:07:09;7.30;99.90
55173;DHT22;41061;52.822;6.860;2023-03-14T08:09:34;7.10;99.90
55173;DHT22;41061;52.822;6.860;2023-03-14T08:12:00;7.00;99.90
55173;DHT22;41061;52.822;6.860;2023-03-14T08:14:26;6.60;99.90
55173;DHT22;41061;52.822;6.860;2023-03-14T08:16:52;6.40;99.90
55173;DHT22;41061;52.822;6.860;2023-03-14T08:19:18;6.20;99.90
55173;DHT22;41061;52.822;6.860;2023-03-14T08:21:43;6.00;99.90
55173;DHT22;41061;52.822;6.860;2023-03-14T08:24:09;5.90;99.90
55173;DHT22;41061;52.822;6.860;2023-03-14T08:26:35;5.80;99.90
55173;DHT22;41061;52.822;6.860;2023-03-14T08:29:00;5.70;99.90
55173;DHT22;41061;52.822;6.860;2023-03-14T08:31:26;5.60;99.90
55173;DHT22;41061;52.822;6.860;2023-03-14T08:33:52;5.50;99.90
55173;DHT22;41061;52.822;6.860;2023-03-14T08:36:19;5.40;99.90
55173;DHT22;41061;52.822;6.860;2023-03-14T08:38:45;5.30;99.90
55173;DHT22;41061;52.822;6.860;2023-03-14T08:41:11;5.10;99.90
55173;DHT22;41061;52.822;6.860;2023-03-14T08:43:37;5.10;99.90
55173;DHT22;41061;52.822;6.860;2023-03-14T08:46:03;5.00;99.90
55173;DHT22;41061;52.822;6.860;2023-03-14T08:48:29;5.10;99.90
55173;DHT22;41061;52.822;6.860;2023-03-14T08:50:57;5.00;99.90
55173;DHT22;41061;52.822;6.860;2023-03-14T08:53:30;5.00;99.90
55173;DHT22;41061;52.822;6.860;2023-03-14T08:55:55;5.00;99.90
55173;DHT22;41061;52.822;6.860;2023-03-14T08:58:21;5.00;99.90
55173;DHT22;41061;52.822;6.860;2023-03-14T09:00:49;5.00;99.90
55173;DHT22;41061;52.822;6.860;2023-03-14T09:03:14;5.10;99.90
55173;DHT22;41061;52.822;6.860;2023-03-14T09:05:40;5.00;99.90
55173;DHT22;41061;52.822;6.860;2023-03-14T09:08:06;5.10;99.90
55173;DHT22;41061;52.822;6.860;2023-03-14T09:10:32;5.10;99.90
55173;DHT22;41061;52.822;6.860;2023-03-14T09:12:57;5.10;99.90
55173;DHT22;41061;52.822;6.860;2023-03-14T09:15:24;5.20;99.90
55173;DHT22;41061;52.822;6.860;2023-03-14T09:17:50;5.20;99.90
55173;DHT22;41061;52.822;6.860;2023-03-14T09:20:16;5.30;99.90
55173;DHT22;41061;52.822;6.860;2023-03-14T09:22:42;5.30;99.90
55173;DHT22;41061;52.822;6.860;2023-03-14T09:25:08;5.30;99.90
55173;DHT22;41061;52.822;6.860;2023-03-14T09:27:33;5.40;99.90
55173;DHT22;41061;52.822;6.860;2023-03-14T09:29:59;5.40;99.90
55173;DHT22;41061;52.822;6.860;2023-03-14T09:32:25;5.50;99.90
55173;DHT22;41061;52.822;6.860;2023-03-14T09:34:51;5.60;99.90
55173;DHT22;41061;52.822;6.860;2023-03-14T09:37:17;5.60;99.90
55173;DHT22;41061;52.822;6.860;2023-03-14T09:39:43;5.70;99.90
55173;DHT22;41061;52.822;6.860;2023-03-14T09:42:14;5.80;99.90
55173;DHT22;41061;52.822;6.860;2023-03-14T09:44:57;5.90;99.90
55173;DHT22;41061;52.822;6.860;2023-03-14T09:47:25;6.00;99.90
55173;DHT22;41061;52.822;6.860;2023-03-14T09:49:51;6.10;99.90
55173;DHT22;41061;52.822;6.860;2023-03-14T09:55:21;6.40;99.90
55173;DHT22;41061;52.822;6.860;2023-03-14T09:57:49;6.40;99.90
55173;DHT22;41061;52.822;6.860;2023-03-14T10:00:25;6.50;99.90
55173;DHT22;41061;52.822;6.860;2023-03-14T10:05:32;6.70;99.90
55173;DHT22;41061;52.822;6.860;2023-03-14T10:07:58;6.80;99.90
55173;DHT22;41061;52.822;6.860;2023-03-14T10:10:25;6.90;99.90
55173;DHT22;41061;52.822;6.860;2023-03-14T10:12:59;6.90;99.90
55173;DHT22;41061;52.822;6.860;2023-03-14T10:15:32;6.90;99.90
55173;DHT22;41061;52.822;6.860;2023-03-14T10:18:01;6.80;99.90
55173;DHT22;41061;52.822;6.860;2023-03-14T10:23:04;6.80;99.90
55173;DHT22;41061;52.822;6.860;2023-03-14T10:25:32;6.80;99.90
55173;DHT22;41061;52.822;6.860;2023-03-14T10:27:59;6.80;99.90
55173;DHT22;41061;52.822;6.860;2023-03-14T10:32:56;6.40;99.90
55173;DHT22;41061;52.822;6.860;2023-03-14T10:35:23;6.20;99.90
55173;DHT22;41061;52.822;6.860;2023-03-14T10:40:19;6.00;99.90
55173;DHT22;41061;52.822;6.860;2023-03-14T10:42:46;6.00;99.90
55173;DHT22;41061;52.822;6.860;2023-03-14T10:45:40;6.10;99.90
55173;DHT22;41061;52.822;6.860;2023-03-14T10:48:30;6.30;99.90
55173;DHT22;41061;52.822;6.860;2023-03-14T10:51:06;6.40;99.90
55173;DHT22;41061;52.822;6.860;2023-03-14T10:53:38;6.50;99.90
55173;DHT22;41061;52.822;6.860;2023-03-14T10:56:04;6.50;99.90
55173;DHT22;41061;52.822;6.860;2023-03-14T10:58:40;6.60;99.90
55173;DHT22;41061;52.822;6.860;2023-03-14T11:01:15;6.50;99.90
55173;DHT22;41061;52.822;6.860;2023-03-14T11:03:53;6.60;99.90
55173;DHT22;41061;52.822;6.860;2023-03-14T11:06:28;6.50;99.90
55173;DHT22;41061;52.822;6.860;2023-03-14T11:09:05;6.50;99.90
55173;DHT22;41061;52.822;6.860;2023-03-14T11:11:32;6.40;99.90
55173;DHT22;41061;52.822;6.860;2023-03-14T11:14:29;6.60;99.90
55173;DHT22;41061;52.822;6.860;2023-03-14T11:17:02;6.70;99.90
55173;DHT22;41061;52.822;6.860;2023-03-14T11:20:17;6.90;99.90
55173;DHT22;41061;52.822;6.860;2023-03-14T11:25:47;7.00;99.90
55173;DHT22;41061;52.822;6.860;2023-03-14T11:28:39;7.00;99.90
55173;DHT22;41061;52.822;6.860;2023-03-14T11:34:02;7.10;99.90
55173;DHT22;41061;52.822;6.860;2023-03-14T11:36:39;7.20;99.90
55173;DHT22;41061;52.822;6.860;2023-03-14T11:39:14;7.00;99.90
55173;DHT22;41061;52.822;6.860;2023-03-14T11:41:43;7.20;99.90
55173;DHT22;41061;52.822;6.860;2023-03-14T11:44:22;7.10;99.90
55173;DHT22;41061;52.822;6.860;2023-03-14T11:47:12;7.10;99.90
55173;DHT22;41061;52.822;6.860;2023-03-14T11:49:50;7.20;99.90
55173;DHT22;41061;52.822;6.860;2023-03-14T11:52:27;7.10;99.90
55173;DHT22;41061;52.822;6.860;2023-03-14T11:55:24;7.10;99.90
55173;DHT22;41061;52.822;6.860;2023-03-14T11:57:57;7.20;99.90
55173;DHT22;41061;52.822;6.860;2023-03-14T12:00:24;7.20;99.90
55173;DHT22;41061;52.822;6.860;2023-03-14T12:11:16;7.80;99.90
55173;DHT22;41061;52.822;6.860;2023-03-14T12:13:47;7.70;99.90
55173;DHT22;41061;52.822;6.860;2023-03-14T12:18:50;7.50;99.90
55173;DHT22;41061;52.822;6.860;2023-03-14T12:21:16;7.50;99.90
55173;DHT22;41061;52.822;6.860;2023-03-14T12:23:52;7.60;99.40
55173;DHT22;41061;52.822;6.860;2023-03-14T12:26:26;7.70;98.70
55173;DHT22;41061;52.822;6.860;2023-03-14T12:34:02;8.10;99.90
55173;DHT22;41061;52.822;6.860;2023-03-14T12:42:12;8.20;93.40
55173;DHT22;41061;52.822;6.860;2023-03-14T12:44:43;8.10;93.80
55173;DHT22;41061;52.822;6.860;2023-03-14T12:49:52;8.10;90.80
55173;DHT22;41061;52.822;6.860;2023-03-14T12:52:31;8.10;91.50
55173;DHT22;41061;52.822;6.860;2023-03-14T13:02:44;8.60;95.10
55173;DHT22;41061;52.822;6.860;2023-03-14T13:12:57;8.50;88.70
55173;DHT22;41061;52.822;6.860;2023-03-14T13:15:28;8.60;91.60
55173;DHT22;41061;52.822;6.860;2023-03-14T13:18:07;8.70;92.60
55173;DHT22;41061;52.822;6.860;2023-03-14T13:20:37;8.90;91.80
55173;DHT22;41061;52.822;6.860;2023-03-14T13:23:04;9.00;90.50
55173;DHT22;41061;52.822;6.860;2023-03-14T13:25:34;9.10;90.60
55173;DHT22;41061;52.822;6.860;2023-03-14T13:28:01;9.10;92.30
55173;DHT22;41061;52.822;6.860;2023-03-14T13:30:28;9.00;93.20
55173;DHT22;41061;52.822;6.860;2023-03-14T13:32:55;8.80;90.40
55173;DHT22;41061;52.822;6.860;2023-03-14T13:35:25;8.60;91.00
55173;DHT22;41061;52.822;6.860;2023-03-14T13:38:00;8.30;90.00
55173;DHT22;41061;52.822;6.860;2023-03-14T13:40:32;8.20;90.00
55173;DHT22;41061;52.822;6.860;2023-03-14T13:45:48;8.10;89.60
55173;DHT22;41061;52.822;6.860;2023-03-14T13:48:15;8.00;88.40
55173;DHT22;41061;52.822;6.860;2023-03-14T13:50:53;7.80;86.00
55173;DHT22;41061;52.822;6.860;2023-03-14T13:53:20;7.70;90.20
55173;DHT22;41061;52.822;6.860;2023-03-14T13:55:46;7.80;89.70
55173;DHT22;41061;52.822;6.860;2023-03-14T13:58:26;7.90;90.20
55173;DHT22;41061;52.822;6.860;2023-03-14T14:00:57;8.00;90.30
55173;DHT22;41061;52.822;6.860;2023-03-14T14:03:24;8.20;91.50
55173;DHT22;41061;52.822;6.860;2023-03-14T14:05:50;8.40;92.10
55173;DHT22;41061;52.822;6.860;2023-03-14T14:08:15;8.50;91.80
55173;DHT22;41061;52.822;6.860;2023-03-14T14:10:41;8.50;92.70
55173;DHT22;41061;52.822;6.860;2023-03-14T14:13:10;8.40;91.80
55173;DHT22;41061;52.822;6.860;2023-03-14T14:15:44;8.30;90.30
55173;DHT22;41061;52.822;6.860;2023-03-14T14:18:15;8.10;88.60
55173;DHT22;41061;52.822;6.860;2023-03-14T14:20:44;8.10;87.20
55173;DHT22;41061;52.822;6.860;2023-03-14T14:23:14;8.00;85.60
55173;DHT22;41061;52.822;6.860;2023-03-14T14:25:43;7.80;86.60
55173;DHT22;41061;52.822;6.860;2023-03-14T14:28:35;7.90;87.20
55173;DHT22;41061;52.822;6.860;2023-03-14T14:33:39;8.00;89.00
55173;DHT22;41061;52.822;6.860;2023-03-14T14:36:19;8.20;89.10
55173;DHT22;41061;52.822;6.860;2023-03-14T14:38:54;8.30;88.40
55173;DHT22;41061;52.822;6.860;2023-03-14T14:41:20;8.20;87.50
55173;DHT22;41061;52.822;6.860;2023-03-14T14:43:46;8.20;86.30
55173;DHT22;41061;52.822;6.860;2023-03-14T14:46:17;8.00;89.70
55173;DHT22;41061;52.822;6.860;2023-03-14T14:48:44;7.80;90.00
55173;DHT22;41061;52.822;6.860;2023-03-14T14:51:24;7.70;87.80
55173;DHT22;41061;52.822;6.860;2023-03-14T14:53:59;7.70;88.20
55173;DHT22;41061;52.822;6.860;2023-03-14T14:56:26;7.60;86.40
55173;DHT22;41061;52.822;6.860;2023-03-14T14:58:58;7.50;89.20
55173;DHT22;41061;52.822;6.860;2023-03-14T15:01:25;7.50;91.40
55173;DHT22;41061;52.822;6.860;2023-03-14T15:03:56;7.60;91.70
55173;DHT22;41061;52.822;6.860;2023-03-14T15:06:24;7.50;91.60
55173;DHT22;41061;52.822;6.860;2023-03-14T15:08:52;7.40;91.50
55173;DHT22;41061;52.822;6.860;2023-03-14T15:11:21;7.40;91.20
55173;DHT22;41061;52.822;6.860;2023-03-14T15:13:49;7.40;88.80
55173;DHT22;41061;52.822;6.860;2023-03-14T15:16:17;7.30;89.60
55173;DHT22;41061;52.822;6.860;2023-03-14T15:18:44;7.30;90.60
55173;DHT22;41061;52.822;6.860;2023-03-14T15:21:11;7.30;92.00
55173;DHT22;41061;52.822;6.860;2023-03-14T15:23:37;7.40;92.60
55173;DHT22;41061;52.822;6.860;2023-03-14T15:26:11;7.40;92.80
55173;DHT22;41061;52.822;6.860;2023-03-14T15:28:37;7.30;92.90
55173;DHT22;41061;52.822;6.860;2023-03-14T15:31:03;7.30;93.80
55173;DHT22;41061;52.822;6.860;2023-03-14T15:33:28;7.40;93.20
55173;DHT22;41061;52.822;6.860;2023-03-14T15:35:54;7.40;92.80
55173;DHT22;41061;52.822;6.860;2023-03-14T15:38:21;7.40;93.40
55173;DHT22;41061;52.822;6.860;2023-03-14T15:40:49;7.40;94.30
55173;DHT22;41061;52.822;6.860;2023-03-14T15:43:15;7.40;94.30
55173;DHT22;41061;52.822;6.860;2023-03-14T15:45:41;7.40;92.90
55173;DHT22;41061;52.822;6.860;2023-03-14T15:48:16;7.30;92.90
55173;DHT22;41061;52.822;6.860;2023-03-14T15:50:42;7.40;93.00
55173;DHT22;41061;52.822;6.860;2023-03-14T15:53:08;7.40;92.80
55173;DHT22;41061;52.822;6.860;2023-03-14T15:55:34;7.40;92.60
55173;DHT22;41061;52.822;6.860;2023-03-14T15:58:00;7.30;93.30
55173;DHT22;41061;52.822;6.860;2023-03-14T16:00:28;7.30;92.30
55173;DHT22;41061;52.822;6.860;2023-03-14T16:02:54;7.30;91.30
55173;DHT22;41061;52.822;6.860;2023-03-14T16:05:20;7.20;90.40
55173;DHT22;41061;52.822;6.860;2023-03-14T16:07:45;7.20;91.00
55173;DHT22;41061;52.822;6.860;2023-03-14T16:10:12;7.10;91.40
55173;DHT22;41061;52.822;6.860;2023-03-14T16:12:39;7.10;91.80
55173;DHT22;41061;52.822;6.860;2023-03-14T16:15:05;7.10;93.10
55173;DHT22;41061;52.822;6.860;2023-03-14T16:17:32;7.30;92.20
55173;DHT22;41061;52.822;6.860;2023-03-14T16:19:58;7.30;92.80
55173;DHT22;41061;52.822;6.860;2023-03-14T16:22:23;7.10;92.90
55173;DHT22;41061;52.822;6.860;2023-03-14T16:24:49;6.90;94.10
55173;DHT22;41061;52.822;6.860;2023-03-14T16:27:15;7.00;95.00
55173;DHT22;41061;52.822;6.860;2023-03-14T16:29:41;6.90;95.40
55173;DHT22;41061;52.822;6.860;2023-03-14T16:32:08;6.90;95.90
55173;DHT22;41061;52.822;6.860;2023-03-14T16:34:37;6.80;96.30
55173;DHT22;41061;52.822;6.860;2023-03-14T16:37:02;6.70;96.70
55173;DHT22;41061;52.822;6.860;2023-03-14T16:39:28;6.70;96.30
55173;DHT22;41061;52.822;6.860;2023-03-14T16:41:57;6.50;95.80
55173;DHT22;41061;52.822;6.860;2023-03-14T16:44:23;6.40;97.20
55173;DHT22;41061;52.822;6.860;2023-03-14T16:46:49;6.30;97.50
55173;DHT22;41061;52.822;6.860;2023-03-14T16:49:15;6.20;96.90
55173;DHT22;41061;52.822;6.860;2023-03-14T16:51:41;6.10;96.60
55173;DHT22;41061;52.822;6.860;2023-03-14T16:54:07;6.00;96.10
55173;DHT22;41061;52.822;6.860;2023-03-14T16:56:34;5.90;97.90
55173;DHT22;41061;52.822;6.860;2023-03-14T16:58:59;5.80;99.90